sensor_id;sensor_type;location;lat;lon;timestamp;P1;durP1;ratioP1;P2;durP2;ratioP2
7647;SDS011;3866;48.020;11.720;2022-12-29T00:00:59;1.93;;;1.00;;
7647;SDS011;3866;48.020;11.720;2022-12-29T00:03:27;0.97;;;0.70;;
7647;SDS011;3866;48.020;11.720;2022-12-29T00:05:56;0.83;;;0.80;;
7647;SDS011;3866;48.020;11.720;2022-12-29T00:08:24;0.50;;;0.50;;
7647;SDS011;3866;48.020;11.720;2022-12-29T00:11:06;0.67;;;0.60;;
7647;SDS011;3866;48.020;11.720;2022-12-29T00:13:33;0.90;;;0.90;;
7647;SDS011;3866;48.020;11.720;2022-12-29T00:16:19;0.70;;;0.70;;
7647;SDS011;3866;48.020;11.720;2022-12-29T00:18:46;0.90;;;0.70;;
7647;SDS011;3866;48.020;11.720;2022-12-29T00:21:18;0.87;;;0.63;;
7647;SDS011;3866;48.020;11.720;2022-12-29T00:24:03;0.60;;;0.60;;
7647;SDS011;3866;48.020;11.720;2022-12-29T00:26:50;0.60;;;0.60;;
7647;SDS011;3866;48.020;11.720;2022-12-29T00:29:41;1.57;;;0.83;;
7647;SDS011;3866;48.020;11.720;2022-12-29T00:32:26;0.60;;;0.60;;
7647;SDS011;3866;48.020;11.720;2022-12-29T00:35:11;0.93;;;0.60;;
7647;SDS011;3866;48.020;11.720;2022-12-29T00:37:43;0.50;;;0.47;;
7647;SDS011;3866;48.020;11.720;2022-12-29T00:40:29;0.47;;;0.30;;
7647;SDS011;3866;48.020;11.720;2022-12-29T00:43:13;0.63;;;0.40;;
7647;SDS011;3866;48.020;11.720;2022-12-29T00:45:59;0.40;;;0.40;;
7647;SDS011;3866;48.020;11.720;2022-12-29T00:48:26;1.33;;;0.50;;
7647;SDS011;3866;48.020;11.720;2022-12-29T00:51:10;0.40;;;0.40;;
7647;SDS011;3866;48.020;11.720;2022-12-29T00:53:40;0.90;;;0.40;;
7647;SDS011;3866;48.020;11.720;2022-12-29T00:56:08;0.73;;;0.50;;
7647;SDS011;3866;48.020;11.720;2022-12-29T00:58:35;0.87;;;0.43;;
7647;SDS011;3866;48.020;11.720;2022-12-29T01:01:03;0.80;;;0.40;;
7647;SDS011;3866;48.020;11.720;2022-12-29T01:03:32;0.50;;;0.50;;
7647;SDS011;3866;48.020;11.720;2022-12-29T01:06:01;1.67;;;0.70;;
7647;SDS011;3866;48.020;11.720;2022-12-29T01:08:30;0.40;;;0.40;;
7647;SDS011;3866;48.020;11.720;2022-12-29T01:11:00;1.27;;;0.50;;
7647;SDS011;3866;48.020;11.720;2022-12-29T01:13:27;0.63;;;0.50;;
7647;SDS011;3866;48.020;11.720;2022-12-29T01:15:55;0.70;;;0.37;;
7647;SDS011;3866;48.020;11.720;2022-12-29T01:18:23;0.47;;;0.47;;
7647;SDS011;3866;48.020;11.720;2022-12-29T01:20:57;0.57;;;0.40;;
7647;SDS011;3866;48.020;11.720;2022-12-29T01:23:26;0.83;;;0.40;;
7647;SDS011;3866;48.020;11.720;2022-12-29T01:25:54;1.13;;;0.60;;
7647;SDS011;3866;48.020;11.720;2022-12-29T01:28:24;0.70;;;0.70;;
7647;SDS011;3866;48.020;11.720;2022-12-29T01:30:50;0.73;;;0.57;;
7647;SDS011;3866;48.020;11.720;2022-12-29T01:33:18;0.67;;;0.37;;
7647;SDS011;3866;48.020;11.720;2022-12-29T01:35:46;0.77;;;0.40;;
7647;SDS011;3866;48.020;11.720;2022-12-29T01:38:13;1.33;;;0.43;;
7647;SDS011;3866;48.020;11.720;2022-12-29T01:40:43;0.27;;;0.27;;
7647;SDS011;3866;48.020;11.720;2022-12-29T01:43:12;1.87;;;0.60;;
7647;SDS011;3866;48.020;11.720;2022-12-29T01:45:43;1.37;;;0.47;;
7647;SDS011;3866;48.020;11.720;2022-12-29T01:48:16;0.40;;;0.40;;
7647;SDS011;3866;48.020;11.720;2022-12-29T01:50:45;0.60;;;0.50;;
7647;SDS011;3866;48.020;11.720;2022-12-29T01:53:18;0.40;;;0.40;;
7647;SDS011;3866;48.020;11.720;2022-12-29T01:55:49;0.50;;;0.40;;
7647;SDS011;3866;48.020;11.720;2022-12-29T01:58:22;0.50;;;0.50;;
7647;SDS011;3866;48.020;11.720;2022-12-29T02:01:03;0.37;;;0.37;;
7647;SDS011;3866;48.020;11.720;2022-12-29T02:03:31;2.03;;;0.80;;
7647;SDS011;3866;48.020;11.720;2022-12-29T02:06:01;0.40;;;0.40;;
7647;SDS011;3866;48.020;11.720;2022-12-29T02:08:35;0.37;;;0.30;;
7647;SDS011;3866;48.020;11.720;2022-12-29T02:11:03;0.70;;;0.70;;
7647;SDS011;3866;48.020;11.720;2022-12-29T02:13:30;0.60;;;0.60;;
7647;SDS011;3866;48.020;11.720;2022-12-29T02:16:01;0.50;;;0.50;;
7647;SDS011;3866;48.020;11.720;2022-12-29T02:18:42;0.90;;;0.60;;
7647;SDS011;3866;48.020;11.720;2022-12-29T02:33:15;0.77;;;0.47;;
7647;SDS011;3866;48.020;11.720;2022-12-29T02:35:51;0.60;;;0.60;;
7647;SDS011;3866;48.020;11.720;2022-12-29T02:38:30;0.50;;;0.50;;
7647;SDS011;3866;48.020;11.720;2022-12-29T02:41:07;2.20;;;0.40;;
7647;SDS011;3866;48.020;11.720;2022-12-29T02:43:44;0.30;;;0.30;;
7647;SDS011;3866;48.020;11.720;2022-12-29T02:46:19;0.43;;;0.40;;
7647;SDS011;3866;48.020;11.720;2022-12-29T02:48:54;1.27;;;0.40;;
7647;SDS011;3866;48.020;11.720;2022-12-29T02:51:31;0.40;;;0.40;;
7647;SDS011;3866;48.020;11.720;2022-12-29T02:54:01;1.90;;;0.43;;
7647;SDS011;3866;48.020;11.720;2022-12-29T02:56:46;0.60;;;0.33;;
7647;SDS011;3866;48.020;11.720;2022-12-29T02:59:13;0.40;;;0.30;;
7647;SDS011;3866;48.020;11.720;2022-12-29T03:01:47;0.33;;;0.33;;
7647;SDS011;3866;48.020;11.720;2022-12-29T03:04:50;0.67;;;0.67;;
7647;SDS011;3866;48.020;11.720;2022-12-29T03:07:29;1.60;;;0.90;;
7647;SDS011;3866;48.020;11.720;2022-12-29T03:10:07;2.23;;;1.07;;
7647;SDS011;3866;48.020;11.720;2022-12-29T03:12:53;1.20;;;0.53;;
7647;SDS011;3866;48.020;11.720;2022-12-29T03:15:50;0.50;;;0.50;;
7647;SDS011;3866;48.020;11.720;2022-12-29T03:18:44;0.57;;;0.53;;
7647;SDS011;3866;48.020;11.720;2022-12-29T03:21:17;0.83;;;0.60;;
7647;SDS011;3866;48.020;11.720;2022-12-29T03:24:11;0.33;;;0.33;;
7647;SDS011;3866;48.020;11.720;2022-12-29T03:26:40;0.40;;;0.40;;
7647;SDS011;3866;48.020;11.720;2022-12-29T03:29:09;0.40;;;0.40;;
7647;SDS011;3866;48.020;11.720;2022-12-29T03:31:38;0.70;;;0.60;;
7647;SDS011;3866;48.020;11.720;2022-12-29T03:34:12;0.73;;;0.27;;
7647;SDS011;3866;48.020;11.720;2022-12-29T03:36:42;1.93;;;0.50;;
7647;SDS011;3866;48.020;11.720;2022-12-29T03:39:13;0.40;;;0.30;;
7647;SDS011;3866;48.020;11.720;2022-12-29T03:41:40;0.50;;;0.30;;
7647;SDS011;3866;48.020;11.720;2022-12-29T03:44:10;0.33;;;0.33;;
7647;SDS011;3866;48.020;11.720;2022-12-29T03:46:38;2.77;;;0.90;;
7647;SDS011;3866;48.020;11.720;2022-12-29T03:49:06;1.73;;;0.43;;
7647;SDS011;3866;48.020;11.720;2022-12-29T03:51:36;0.93;;;0.60;;
7647;SDS011;3866;48.020;11.720;2022-12-29T03:54:03;0.40;;;0.40;;
7647;SDS011;3866;48.020;11.720;2022-12-29T03:56:31;0.60;;;0.60;;
7647;SDS011;3866;48.020;11.720;2022-12-29T03:59:00;0.83;;;0.50;;
7647;SDS011;3866;48.020;11.720;2022-12-29T04:01:28;0.77;;;0.40;;
7647;SDS011;3866;48.020;11.720;2022-12-29T04:03:57;0.47;;;0.43;;
7647;SDS011;3866;48.020;11.720;2022-12-29T04:06:24;0.57;;;0.40;;
7647;SDS011;3866;48.020;11.720;2022-12-29T04:08:52;0.70;;;0.30;;
7647;SDS011;3866;48.020;11.720;2022-12-29T04:11:19;0.37;;;0.37;;
7647;SDS011;3866;48.020;11.720;2022-12-29T04:13:46;1.20;;;0.40;;
7647;SDS011;3866;48.020;11.720;2022-12-29T04:16:13;0.60;;;0.30;;
7647;SDS011;3866;48.020;11.720;2022-12-29T04:18:40;1.03;;;0.67;;
7647;SDS011;3866;48.020;11.720;2022-12-29T04:21:08;0.80;;;0.30;;
7647;SDS011;3866;48.020;11.720;2022-12-29T04:23:38;0.40;;;0.40;;
7647;SDS011;3866;48.020;11.720;2022-12-29T04:26:09;0.30;;;0.30;;
7647;SDS011;3866;48.020;11.720;2022-12-29T04:28:37;0.30;;;0.30;;
7647;SDS011;3866;48.020;11.720;2022-12-29T04:31:08;0.60;;;0.57;;
7647;SDS011;3866;48.020;11.720;2022-12-29T04:33:37;0.50;;;0.47;;
7647;SDS011;3866;48.020;11.720;2022-12-29T04:36:05;1.83;;;0.43;;
7647;SDS011;3866;48.020;11.720;2022-12-29T04:38:34;1.53;;;0.40;;
7647;SDS011;3866;48.020;11.720;2022-12-29T04:41:01;0.90;;;0.47;;
7647;SDS011;3866;48.020;11.720;2022-12-29T04:43:30;0.60;;;0.60;;
7647;SDS011;3866;48.020;11.720;2022-12-29T04:45:57;0.60;;;0.57;;
7647;SDS011;3866;48.020;11.720;2022-12-29T04:48:25;0.60;;;0.60;;
7647;SDS011;3866;48.020;11.720;2022-12-29T04:50:53;0.30;;;0.30;;
7647;SDS011;3866;48.020;11.720;2022-12-29T04:53:20;1.07;;;0.50;;
7647;SDS011;3866;48.020;11.720;2022-12-29T04:55:51;0.60;;;0.40;;
7647;SDS011;3866;48.020;11.720;2022-12-29T04:58:18;0.50;;;0.50;;
7647;SDS011;3866;48.020;11.720;2022-12-29T05:00:49;0.53;;;0.53;;
7647;SDS011;3866;48.020;11.720;2022-12-29T05:03:16;0.67;;;0.67;;
7647;SDS011;3866;48.020;11.720;2022-12-29T05:05:43;0.57;;;0.50;;
7647;SDS011;3866;48.020;11.720;2022-12-29T05:08:10;0.60;;;0.50;;
7647;SDS011;3866;48.020;11.720;2022-12-29T05:10:38;0.63;;;0.60;;
7647;SDS011;3866;48.020;11.720;2022-12-29T05:13:05;7.37;;;0.50;;
7647;SDS011;3866;48.020;11.720;2022-12-29T05:15:32;0.70;;;0.40;;
7647;SDS011;3866;48.020;11.720;2022-12-29T05:18:01;0.60;;;0.50;;
7647;SDS011;3866;48.020;11.720;2022-12-29T05:20:29;0.53;;;0.50;;
7647;SDS011;3866;48.020;11.720;2022-12-29T05:22:57;0.73;;;0.73;;
7647;SDS011;3866;48.020;11.720;2022-12-29T05:25:25;0.93;;;0.70;;
7647;SDS011;3866;48.020;11.720;2022-12-29T05:27:52;0.53;;;0.43;;
7647;SDS011;3866;48.020;11.720;2022-12-29T05:30:23;1.90;;;0.60;;
7647;SDS011;3866;48.020;11.720;2022-12-29T05:32:49;0.40;;;0.40;;
7647;SDS011;3866;48.020;11.720;2022-12-29T05:35:19;0.63;;;0.57;;
7647;SDS011;3866;48.020;11.720;2022-12-29T05:37:47;0.60;;;0.60;;
7647;SDS011;3866;48.020;11.720;2022-12-29T05:40:14;2.53;;;0.43;;
7647;SDS011;3866;48.020;11.720;2022-12-29T05:42:40;1.30;;;0.60;;
7647;SDS011;3866;48.020;11.720;2022-12-29T05:45:09;0.60;;;0.47;;
7647;SDS011;3866;48.020;11.720;2022-12-29T05:47:37;0.63;;;0.50;;
7647;SDS011;3866;48.020;11.720;2022-12-29T05:50:08;0.60;;;0.60;;
7647;SDS011;3866;48.020;11.720;2022-12-29T05:52:38;0.53;;;0.53;;
7647;SDS011;3866;48.020;11.720;2022-12-29T05:55:05;1.93;;;0.70;;
7647;SDS011;3866;48.020;11.720;2022-12-29T05:57:34;0.70;;;0.70;;
7647;SDS011;3866;48.020;11.720;2022-12-29T06:00:02;0.87;;;0.60;;
7647;SDS011;3866;48.020;11.720;2022-12-29T06:02:29;0.77;;;0.70;;
7647;SDS011;3866;48.020;11.720;2022-12-29T06:05:01;2.50;;;0.70;;
7647;SDS011;3866;48.020;11.720;2022-12-29T06:07:28;0.50;;;0.50;;
7647;SDS011;3866;48.020;11.720;2022-12-29T06:09:57;0.33;;;0.33;;
7647;SDS011;3866;48.020;11.720;2022-12-29T06:12:26;0.83;;;0.50;;
7647;SDS011;3866;48.020;11.720;2022-12-29T06:14:54;0.70;;;0.50;;
7647;SDS011;3866;48.020;11.720;2022-12-29T06:17:23;0.83;;;0.50;;
7647;SDS011;3866;48.020;11.720;2022-12-29T06:19:50;0.80;;;0.80;;
7647;SDS011;3866;48.020;11.720;2022-12-29T06:22:18;0.80;;;0.63;;
7647;SDS011;3866;48.020;11.720;2022-12-29T06:24:45;0.90;;;0.90;;
7647;SDS011;3866;48.020;11.720;2022-12-29T06:27:16;0.80;;;0.80;;
7647;SDS011;3866;48.020;11.720;2022-12-29T06:29:43;0.60;;;0.57;;
7647;SDS011;3866;48.020;11.720;2022-12-29T06:32:10;0.90;;;0.90;;
7647;SDS011;3866;48.020;11.720;2022-12-29T06:34:38;0.53;;;0.53;;
7647;SDS011;3866;48.020;11.720;2022-12-29T06:37:06;1.63;;;1.07;;
7647;SDS011;3866;48.020;11.720;2022-12-29T06:39:34;1.10;;;0.63;;
7647;SDS011;3866;48.020;11.720;2022-12-29T06:42:01;0.57;;;0.57;;
7647;SDS011;3866;48.020;11.720;2022-12-29T06:44:31;0.70;;;0.70;;
7647;SDS011;3866;48.020;11.720;2022-12-29T06:46:59;0.77;;;0.73;;
7647;SDS011;3866;48.020;11.720;2022-12-29T06:49:27;0.53;;;0.53;;
7647;SDS011;3866;48.020;11.720;2022-12-29T06:51:54;5.80;;;1.40;;
7647;SDS011;3866;48.020;11.720;2022-12-29T06:54:24;1.40;;;0.87;;
7647;SDS011;3866;48.020;11.720;2022-12-29T06:56:52;0.97;;;0.60;;
7647;SDS011;3866;48.020;11.720;2022-12-29T06:59:20;0.50;;;0.50;;
7647;SDS011;3866;48.020;11.720;2022-12-29T07:01:49;1.00;;;0.60;;
7647;SDS011;3866;48.020;11.720;2022-12-29T07:04:18;0.93;;;0.57;;
7647;SDS011;3866;48.020;11.720;2022-12-29T07:06:45;1.13;;;0.67;;
7647;SDS011;3866;48.020;11.720;2022-12-29T07:09:12;0.93;;;0.70;;
7647;SDS011;3866;48.020;11.720;2022-12-29T07:11:39;0.73;;;0.60;;
7647;SDS011;3866;48.020;11.720;2022-12-29T07:14:06;0.87;;;0.73;;
7647;SDS011;3866;48.020;11.720;2022-12-29T07:16:35;3.60;;;0.70;;
7647;SDS011;3866;48.020;11.720;2022-12-29T07:19:05;1.00;;;0.80;;
7647;SDS011;3866;48.020;11.720;2022-12-29T07:21:32;0.80;;;0.80;;
7647;SDS011;3866;48.020;11.720;2022-12-29T07:24:00;2.90;;;1.90;;
7647;SDS011;3866;48.020;11.720;2022-12-29T07:26:27;1.37;;;1.00;;
7647;SDS011;3866;48.020;11.720;2022-12-29T07:28:55;1.17;;;1.03;;
7647;SDS011;3866;48.020;11.720;2022-12-29T07:31:23;1.90;;;0.70;;
7647;SDS011;3866;48.020;11.720;2022-12-29T07:33:51;0.60;;;0.60;;
7647;SDS011;3866;48.020;11.720;2022-12-29T07:36:19;1.43;;;0.80;;
7647;SDS011;3866;48.020;11.720;2022-12-29T07:38:47;1.60;;;0.70;;
7647;SDS011;3866;48.020;11.720;2022-12-29T07:41:16;0.63;;;0.63;;
7647;SDS011;3866;48.020;11.720;2022-12-29T07:43:46;1.07;;;1.00;;
7647;SDS011;3866;48.020;11.720;2022-12-29T07:46:13;0.70;;;0.60;;
7647;SDS011;3866;48.020;11.720;2022-12-29T07:48:41;0.87;;;0.87;;
7647;SDS011;3866;48.020;11.720;2022-12-29T07:51:08;0.87;;;0.87;;
7647;SDS011;3866;48.020;11.720;2022-12-29T07:53:38;1.00;;;0.93;;
7647;SDS011;3866;48.020;11.720;2022-12-29T07:56:06;1.33;;;1.00;;
7647;SDS011;3866;48.020;11.720;2022-12-29T07:58:33;1.97;;;0.70;;
7647;SDS011;3866;48.020;11.720;2022-12-29T08:01:01;2.10;;;0.70;;
7647;SDS011;3866;48.020;11.720;2022-12-29T08:03:29;1.00;;;0.70;;
7647;SDS011;3866;48.020;11.720;2022-12-29T08:05:57;2.10;;;0.80;;
7647;SDS011;3866;48.020;11.720;2022-12-29T08:08:24;2.10;;;0.90;;
7647;SDS011;3866;48.020;11.720;2022-12-29T08:10:53;0.83;;;0.70;;
7647;SDS011;3866;48.020;11.720;2022-12-29T08:13:21;1.40;;;1.00;;
7647;SDS011;3866;48.020;11.720;2022-12-29T08:15:50;1.90;;;0.80;;
7647;SDS011;3866;48.020;11.720;2022-12-29T08:18:17;0.80;;;0.73;;
7647;SDS011;3866;48.020;11.720;2022-12-29T08:20:43;0.50;;;0.47;;
7647;SDS011;3866;48.020;11.720;2022-12-29T08:23:10;0.50;;;0.50;;
7647;SDS011;3866;48.020;11.720;2022-12-29T08:25:39;0.83;;;0.83;;
7647;SDS011;3866;48.020;11.720;2022-12-29T08:28:09;2.03;;;0.97;;
7647;SDS011;3866;48.020;11.720;2022-12-29T08:30:37;2.90;;;0.90;;
7647;SDS011;3866;48.020;11.720;2022-12-29T08:33:05;1.40;;;0.73;;
7647;SDS011;3866;48.020;11.720;2022-12-29T08:35:33;1.07;;;0.87;;
7647;SDS011;3866;48.020;11.720;2022-12-29T08:38:08;0.77;;;0.60;;
7647;SDS011;3866;48.020;11.720;2022-12-29T08:40:38;0.70;;;0.70;;
7647;SDS011;3866;48.020;11.720;2022-12-29T08:43:06;1.90;;;0.90;;
7647;SDS011;3866;48.020;11.720;2022-12-29T08:45:36;0.67;;;0.60;;
7647;SDS011;3866;48.020;11.720;2022-12-29T08:48:04;0.90;;;0.80;;
7647;SDS011;3866;48.020;11.720;2022-12-29T08:50:35;1.20;;;0.83;;
7647;SDS011;3866;48.020;11.720;2022-12-29T08:53:03;0.93;;;0.80;;
7647;SDS011;3866;48.020;11.720;2022-12-29T08:55:32;0.70;;;0.70;;
7647;SDS011;3866;48.020;11.720;2022-12-29T08:58:00;2.63;;;0.93;;
7647;SDS011;3866;48.020;11.720;2022-12-29T09:00:29;1.03;;;0.70;;
7647;SDS011;3866;48.020;11.720;2022-12-29T09:02:57;0.80;;;0.67;;
7647;SDS011;3866;48.020;11.720;2022-12-29T09:05:25;0.70;;;0.70;;
7647;SDS011;3866;48.020;11.720;2022-12-29T09:07:52;1.40;;;0.93;;
7647;SDS011;3866;48.020;11.720;2022-12-29T09:10:20;1.77;;;0.80;;
7647;SDS011;3866;48.020;11.720;2022-12-29T09:12:48;1.10;;;0.93;;
7647;SDS011;3866;48.020;11.720;2022-12-29T09:15:16;1.50;;;0.83;;
7647;SDS011;3866;48.020;11.720;2022-12-29T09:17:46;0.90;;;0.90;;
7647;SDS011;3866;48.020;11.720;2022-12-29T09:20:14;1.33;;;0.83;;
7647;SDS011;3866;48.020;11.720;2022-12-29T09:22:43;0.70;;;0.70;;
7647;SDS011;3866;48.020;11.720;2022-12-29T09:25:12;0.97;;;0.90;;
7647;SDS011;3866;48.020;11.720;2022-12-29T09:27:41;1.10;;;1.00;;
7647;SDS011;3866;48.020;11.720;2022-12-29T09:30:11;0.70;;;0.70;;
7647;SDS011;3866;48.020;11.720;2022-12-29T09:32:40;1.23;;;0.87;;
7647;SDS011;3866;48.020;11.720;2022-12-29T09:35:11;0.70;;;0.70;;
7647;SDS011;3866;48.020;11.720;2022-12-29T09:37:39;2.07;;;0.80;;
7647;SDS011;3866;48.020;11.720;2022-12-29T09:40:10;0.60;;;0.60;;
7647;SDS011;3866;48.020;11.720;2022-12-29T09:42:50;0.97;;;0.87;;
7647;SDS011;3866;48.020;11.720;2022-12-29T09:45:33;0.80;;;0.80;;
7647;SDS011;3866;48.020;11.720;2022-12-29T09:48:11;1.50;;;0.60;;
7647;SDS011;3866;48.020;11.720;2022-12-29T09:50:45;1.53;;;0.77;;
7647;SDS011;3866;48.020;11.720;2022-12-29T09:53:20;0.70;;;0.63;;
7647;SDS011;3866;48.020;11.720;2022-12-29T09:55:51;1.40;;;1.07;;
7647;SDS011;3866;48.020;11.720;2022-12-29T09:58:24;1.70;;;0.60;;
7647;SDS011;3866;48.020;11.720;2022-12-29T10:00:58;1.13;;;0.80;;
7647;SDS011;3866;48.020;11.720;2022-12-29T10:03:32;0.77;;;0.70;;
7647;SDS011;3866;48.020;11.720;2022-12-29T10:06:11;0.80;;;0.70;;
7647;SDS011;3866;48.020;11.720;2022-12-29T10:08:44;0.77;;;0.60;;
7647;SDS011;3866;48.020;11.720;2022-12-29T10:11:22;0.53;;;0.53;;
7647;SDS011;3866;48.020;11.720;2022-12-29T10:14:02;0.90;;;0.60;;
7647;SDS011;3866;48.020;11.720;2022-12-29T10:16:51;1.03;;;0.80;;
7647;SDS011;3866;48.020;11.720;2022-12-29T10:19:34;0.90;;;0.87;;
7647;SDS011;3866;48.020;11.720;2022-12-29T10:22:23;0.53;;;0.53;;
7647;SDS011;3866;48.020;11.720;2022-12-29T10:24:59;2.10;;;1.00;;
7647;SDS011;3866;48.020;11.720;2022-12-29T10:27:31;0.57;;;0.57;;
7647;SDS011;3866;48.020;11.720;2022-12-29T10:30:01;1.67;;;0.80;;
7647;SDS011;3866;48.020;11.720;2022-12-29T10:32:30;1.03;;;0.73;;
7647;SDS011;3866;48.020;11.720;2022-12-29T10:35:03;1.67;;;0.70;;
7647;SDS011;3866;48.020;11.720;2022-12-29T10:37:41;1.67;;;0.87;;
7647;SDS011;3866;48.020;11.720;2022-12-29T10:40:19;1.83;;;0.70;;
7647;SDS011;3866;48.020;11.720;2022-12-29T10:42:53;1.43;;;0.77;;
7647;SDS011;3866;48.020;11.720;2022-12-29T10:45:23;1.20;;;0.80;;
7647;SDS011;3866;48.020;11.720;2022-12-29T10:47:59;0.60;;;0.60;;
7647;SDS011;3866;48.020;11.720;2022-12-29T10:50:35;2.43;;;0.60;;
7647;SDS011;3866;48.020;11.720;2022-12-29T10:53:12;0.50;;;0.50;;
7647;SDS011;3866;48.020;11.720;2022-12-29T10:55:45;0.80;;;0.80;;
7647;SDS011;3866;48.020;11.720;2022-12-29T10:58:14;4.27;;;0.80;;
7647;SDS011;3866;48.020;11.720;2022-12-29T11:00:47;1.40;;;0.70;;
7647;SDS011;3866;48.020;11.720;2022-12-29T11:03:27;4.73;;;1.10;;
7647;SDS011;3866;48.020;11.720;2022-12-29T11:06:08;1.10;;;0.80;;
7647;SDS011;3866;48.020;11.720;2022-12-29T11:08:41;2.10;;;0.70;;
7647;SDS011;3866;48.020;11.720;2022-12-29T11:11:21;2.90;;;2.27;;
7647;SDS011;3866;48.020;11.720;2022-12-29T11:13:55;4.37;;;3.83;;
7647;SDS011;3866;48.020;11.720;2022-12-29T11:16:29;0.90;;;0.70;;
7647;SDS011;3866;48.020;11.720;2022-12-29T11:18:58;2.53;;;0.90;;
7647;SDS011;3866;48.020;11.720;2022-12-29T11:21:30;0.70;;;0.70;;
7647;SDS011;3866;48.020;11.720;2022-12-29T11:24:02;1.17;;;0.80;;
7647;SDS011;3866;48.020;11.720;2022-12-29T11:26:34;0.70;;;0.70;;
7647;SDS011;3866;48.020;11.720;2022-12-29T11:29:08;0.70;;;0.57;;
7647;SDS011;3866;48.020;11.720;2022-12-29T11:31:49;1.30;;;0.70;;
7647;SDS011;3866;48.020;11.720;2022-12-29T11:34:19;0.83;;;0.53;;
7647;SDS011;3866;48.020;11.720;2022-12-29T11:36:50;0.80;;;0.47;;
7647;SDS011;3866;48.020;11.720;2022-12-29T11:39:32;0.73;;;0.50;;
7647;SDS011;3866;48.020;11.720;2022-12-29T11:42:05;2.10;;;0.77;;
7647;SDS011;3866;48.020;11.720;2022-12-29T11:44:42;1.97;;;0.70;;
7647;SDS011;3866;48.020;11.720;2022-12-29T11:47:19;0.93;;;0.60;;
7647;SDS011;3866;48.020;11.720;2022-12-29T11:49:53;0.60;;;0.60;;
7647;SDS011;3866;48.020;11.720;2022-12-29T11:52:25;1.13;;;0.73;;
7647;SDS011;3866;48.020;11.720;2022-12-29T11:55:01;2.53;;;0.60;;
7647;SDS011;3866;48.020;11.720;2022-12-29T11:57:30;1.20;;;1.00;;
7647;SDS011;3866;48.020;11.720;2022-12-29T12:00:03;0.40;;;0.40;;
7647;SDS011;3866;48.020;11.720;2022-12-29T12:02:44;1.20;;;0.77;;
7647;SDS011;3866;48.020;11.720;2022-12-29T12:05:21;0.87;;;0.70;;
7647;SDS011;3866;48.020;11.720;2022-12-29T12:07:55;1.17;;;0.73;;
7647;SDS011;3866;48.020;11.720;2022-12-29T12:10:29;0.83;;;0.47;;
7647;SDS011;3866;48.020;11.720;2022-12-29T12:13:11;0.73;;;0.57;;
7647;SDS011;3866;48.020;11.720;2022-12-29T12:15:48;1.67;;;0.87;;
7647;SDS011;3866;48.020;11.720;2022-12-29T12:18:24;0.50;;;0.50;;
7647;SDS011;3866;48.020;11.720;2022-12-29T12:20:58;1.07;;;0.60;;
7647;SDS011;3866;48.020;11.720;2022-12-29T12:23:36;0.73;;;0.60;;
7647;SDS011;3866;48.020;11.720;2022-12-29T12:26:15;0.87;;;0.70;;
7647;SDS011;3866;48.020;11.720;2022-12-29T12:28:48;1.77;;;0.90;;
7647;SDS011;3866;48.020;11.720;2022-12-29T12:31:26;0.60;;;0.60;;
7647;SDS011;3866;48.020;11.720;2022-12-29T12:34:05;1.00;;;0.60;;
7647;SDS011;3866;48.020;11.720;2022-12-29T12:39:31;1.03;;;0.70;;
7647;SDS011;3866;48.020;11.720;2022-12-29T12:42:09;0.47;;;0.40;;
7647;SDS011;3866;48.020;11.720;2022-12-29T12:44:54;0.73;;;0.60;;
7647;SDS011;3866;48.020;11.720;2022-12-29T12:47:39;2.07;;;0.77;;
7647;SDS011;3866;48.020;11.720;2022-12-29T12:50:27;0.83;;;0.63;;
7647;SDS011;3866;48.020;11.720;2022-12-29T12:53:15;0.83;;;0.70;;
7647;SDS011;3866;48.020;11.720;2022-12-29T12:56:06;0.93;;;0.67;;
7647;SDS011;3866;48.020;11.720;2022-12-29T12:58:49;2.10;;;0.67;;
7647;SDS011;3866;48.020;11.720;2022-12-29T13:01:24;1.03;;;0.70;;
7647;SDS011;3866;48.020;11.720;2022-12-29T13:04:08;1.63;;;0.70;;
7647;SDS011;3866;48.020;11.720;2022-12-29T13:06:58;1.73;;;0.60;;
7647;SDS011;3866;48.020;11.720;2022-12-29T13:09:37;1.00;;;0.47;;
7647;SDS011;3866;48.020;11.720;2022-12-29T13:12:31;0.40;;;0.40;;
7647;SDS011;3866;48.020;11.720;2022-12-29T13:15:11;0.63;;;0.40;;
7647;SDS011;3866;48.020;11.720;2022-12-29T13:17:49;2.57;;;0.50;;
7647;SDS011;3866;48.020;11.720;2022-12-29T13:20:25;0.57;;;0.47;;
7647;SDS011;3866;48.020;11.720;2022-12-29T13:23:01;1.27;;;0.90;;
7647;SDS011;3866;48.020;11.720;2022-12-29T13:25:37;1.70;;;0.50;;
7647;SDS011;3866;48.020;11.720;2022-12-29T13:28:10;1.13;;;0.80;;
7647;SDS011;3866;48.020;11.720;2022-12-29T13:30:49;0.77;;;0.70;;
7647;SDS011;3866;48.020;11.720;2022-12-29T13:33:27;0.87;;;0.40;;
7647;SDS011;3866;48.020;11.720;2022-12-29T13:36:03;1.43;;;0.53;;
7647;SDS011;3866;48.020;11.720;2022-12-29T13:38:39;0.80;;;0.50;;
7647;SDS011;3866;48.020;11.720;2022-12-29T13:41:22;0.60;;;0.60;;
7647;SDS011;3866;48.020;11.720;2022-12-29T13:43:54;1.00;;;0.77;;
7647;SDS011;3866;48.020;11.720;2022-12-29T13:46:29;0.50;;;0.50;;
7647;SDS011;3866;48.020;11.720;2022-12-29T13:49:04;1.30;;;0.83;;
7647;SDS011;3866;48.020;11.720;2022-12-29T13:51:35;1.13;;;0.53;;
7647;SDS011;3866;48.020;11.720;2022-12-29T13:54:13;0.40;;;0.40;;
7647;SDS011;3866;48.020;11.720;2022-12-29T13:56:51;0.83;;;0.57;;
7647;SDS011;3866;48.020;11.720;2022-12-29T13:59:25;0.43;;;0.43;;
7647;SDS011;3866;48.020;11.720;2022-12-29T14:02:10;0.77;;;0.50;;
7647;SDS011;3866;48.020;11.720;2022-12-29T14:04:55;1.00;;;0.50;;
7647;SDS011;3866;48.020;11.720;2022-12-29T14:07:25;0.50;;;0.50;;
7647;SDS011;3866;48.020;11.720;2022-12-29T14:09:54;0.67;;;0.60;;
7647;SDS011;3866;48.020;11.720;2022-12-29T14:12:41;1.37;;;0.70;;
7647;SDS011;3866;48.020;11.720;2022-12-29T14:15:14;2.60;;;0.50;;
7647;SDS011;3866;48.020;11.720;2022-12-29T14:18:02;0.70;;;0.50;;
7647;SDS011;3866;48.020;11.720;2022-12-29T14:20:39;1.40;;;0.57;;
7647;SDS011;3866;48.020;11.720;2022-12-29T14:23:26;1.43;;;0.90;;
7647;SDS011;3866;48.020;11.720;2022-12-29T14:26:13;2.30;;;0.63;;
7647;SDS011;3866;48.020;11.720;2022-12-29T14:28:43;1.80;;;0.83;;
7647;SDS011;3866;48.020;11.720;2022-12-29T14:37:17;0.60;;;0.60;;
7647;SDS011;3866;48.020;11.720;2022-12-29T14:40:02;0.73;;;0.63;;
7647;SDS011;3866;48.020;11.720;2022-12-29T14:42:32;0.80;;;0.70;;
7647;SDS011;3866;48.020;11.720;2022-12-29T14:45:01;1.53;;;0.70;;
7647;SDS011;3866;48.020;11.720;2022-12-29T14:47:34;1.80;;;0.53;;
7647;SDS011;3866;48.020;11.720;2022-12-29T14:50:07;1.53;;;0.80;;
7647;SDS011;3866;48.020;11.720;2022-12-29T14:52:42;5.50;;;0.67;;
7647;SDS011;3866;48.020;11.720;2022-12-29T14:55:32;1.80;;;0.63;;
7647;SDS011;3866;48.020;11.720;2022-12-29T14:58:07;0.80;;;0.80;;
7647;SDS011;3866;48.020;11.720;2022-12-29T15:00:41;1.20;;;1.10;;
7647;SDS011;3866;48.020;11.720;2022-12-29T15:03:12;1.30;;;1.03;;
7647;SDS011;3866;48.020;11.720;2022-12-29T15:05:49;2.07;;;1.87;;
7647;SDS011;3866;48.020;11.720;2022-12-29T15:08:21;2.13;;;1.90;;
7647;SDS011;3866;48.020;11.720;2022-12-29T15:10:53;2.60;;;1.60;;
7647;SDS011;3866;48.020;11.720;2022-12-29T15:13:25;2.47;;;1.70;;
7647;SDS011;3866;48.020;11.720;2022-12-29T15:16:02;3.17;;;2.27;;
7647;SDS011;3866;48.020;11.720;2022-12-29T15:18:47;3.23;;;2.63;;
7647;SDS011;3866;48.020;11.720;2022-12-29T15:21:17;2.77;;;2.10;;
7647;SDS011;3866;48.020;11.720;2022-12-29T15:23:50;2.33;;;1.73;;
7647;SDS011;3866;48.020;11.720;2022-12-29T15:26:20;1.60;;;0.97;;
7647;SDS011;3866;48.020;11.720;2022-12-29T15:28:50;2.33;;;1.37;;
7647;SDS011;3866;48.020;11.720;2022-12-29T15:31:21;1.73;;;1.43;;
7647;SDS011;3866;48.020;11.720;2022-12-29T15:33:52;2.93;;;1.40;;
7647;SDS011;3866;48.020;11.720;2022-12-29T15:36:27;2.23;;;1.70;;
7647;SDS011;3866;48.020;11.720;2022-12-29T15:38:56;1.47;;;1.37;;
7647;SDS011;3866;48.020;11.720;2022-12-29T15:41:29;3.70;;;1.50;;
7647;SDS011;3866;48.020;11.720;2022-12-29T15:44:25;2.87;;;1.70;;
7647;SDS011;3866;48.020;11.720;2022-12-29T15:46:57;2.43;;;2.20;;
7647;SDS011;3866;48.020;11.720;2022-12-29T15:49:29;3.07;;;2.10;;
7647;SDS011;3866;48.020;11.720;2022-12-29T15:51:58;4.47;;;2.60;;
7647;SDS011;3866;48.020;11.720;2022-12-29T15:54:31;6.40;;;3.17;;